sensor_id;sensor_type;location;lat;lon;timestamp;pressure;altitude;pressure_sealevel;temperature;humidity
21821;BME280;11073;48.586;12.066;2023-04-01T00:01:19;95159.50;;;9.21;63.14
21821;BME280;11073;48.586;12.066;2023-04-01T00:04:08;95147.06;;;9.20;63.13
21821;BME280;11073;48.586;12.066;2023-04-01T00:06:57;95141.66;;;9.20;63.44
21821;BME280;11073;48.586;12.066;2023-04-01T00:09:46;95139.47;;;9.17;63.32
21821;BME280;11073;48.586;12.066;2023-04-01T00:12:36;95124.06;;;9.13;63.34
21821;BME280;11073;48.586;12.066;2023-04-01T00:15:26;95128.97;;;9.21;63.26
21821;BME280;11073;48.586;12.066;2023-04-01T00:18:15;95142.47;;;9.21;63.54
21821;BME280;11073;48.586;12.066;2023-04-01T00:21:04;95129.53;;;9.23;63.42
21821;BME280;11073;48.586;12.066;2023-04-01T00:23:54;95146.00;;;9.21;63.52
21821;BME280;11073;48.586;12.066;2023-04-01T00:26:43;95152.69;;;9.19;63.55
21821;BME280;11073;48.586;12.066;2023-04-01T00:29:34;95144.31;;;9.15;63.55
21821;BME280;11073;48.586;12.066;2023-04-01T00:32:23;95146.72;;;9.06;63.68
21821;BME280;11073;48.586;12.066;2023-04-01T00:35:12;95148.28;;;9.02;63.68
21821;BME280;11073;48.586;12.066;2023-04-01T00:38:02;95147.44;;;8.97;63.86
21821;BME280;11073;48.586;12.066;2023-04-01T00:40:57;95148.00;;;8.99;63.89
21821;BME280;11073;48.586;12.066;2023-04-01T00:43:48;95151.22;;;8.96;63.77
21821;BME280;11073;48.586;12.066;2023-04-01T00:46:39;95148.78;;;8.94;63.77
21821;BME280;11073;48.586;12.066;2023-04-01T00:49:30;95149.06;;;8.98;63.80
21821;BME280;11073;48.586;12.066;2023-04-01T00:52:22;95135.53;;;8.93;63.91
21821;BME280;11073;48.586;12.066;2023-04-01T00:55:14;95138.78;;;8.95;63.94
21821;BME280;11073;48.586;12.066;2023-04-01T00:58:07;95150.94;;;8.97;64.07
21821;BME280;11073;48.586;12.066;2023-04-01T01:00:58;95132.03;;;8.97;64.00
21821;BME280;11073;48.586;12.066;2023-04-01T01:03:49;95139.94;;;9.04;64.16
21821;BME280;11073;48.586;12.066;2023-04-01T01:06:43;95152.91;;;9.07;64.15
21821;BME280;11073;48.586;12.066;2023-04-01T01:09:42;95085.16;;;8.66;63.89
21821;BME280;11073;48.586;12.066;2023-04-01T01:12:39;95134.75;;;8.97;64.29
21821;BME280;11073;48.586;12.066;2023-04-01T01:15:31;95135.56;;;8.98;64.48
21821;BME280;11073;48.586;12.066;2023-04-01T01:18:27;95144.19;;;8.95;64.51
21821;BME280;11073;48.586;12.066;2023-04-01T01:21:42;95143.91;;;8.91;64.52
21821;BME280;11073;48.586;12.066;2023-04-01T01:24:46;95131.72;;;8.89;64.54
21821;BME280;11073;48.586;12.066;2023-04-01T01:27:42;95127.63;;;8.81;64.76
21821;BME280;11073;48.586;12.066;2023-04-01T01:30:39;95102.19;;;8.72;64.80
21821;BME280;11073;48.586;12.066;2023-04-01T01:33:49;95114.94;;;8.81;65.12
21821;BME280;11073;48.586;12.066;2023-04-01T01:36:48;95122.50;;;8.79;65.23
21821;BME280;11073;48.586;12.066;2023-04-01T01:39:41;95103.81;;;8.73;65.28
21821;BME280;11073;48.586;12.066;2023-04-01T01:42:33;95116.03;;;8.80;65.46
21821;BME280;11073;48.586;12.066;2023-04-01T01:45:26;95109.81;;;8.80;65.61
21821;BME280;11073;48.586;12.066;2023-04-01T01:48:16;95116.84;;;8.81;65.75
21821;BME280;11073;48.586;12.066;2023-04-01T01:51:06;95101.44;;;8.81;65.71
21821;BME280;11073;48.586;12.066;2023-04-01T01:53:57;95107.94;;;8.80;65.65
21821;BME280;11073;48.586;12.066;2023-04-01T01:56:48;95105.53;;;8.84;65.82
21821;BME280;11073;48.586;12.066;2023-04-01T01:59:39;95111.44;;;8.81;65.86
21821;BME280;11073;48.586;12.066;2023-04-01T02:02:35;95113.31;;;8.80;65.52
21821;BME280;11073;48.586;12.066;2023-04-01T02:05:29;95108.47;;;8.77;65.64
21821;BME280;11073;48.586;12.066;2023-04-01T02:08:28;95108.69;;;8.76;65.63
21821;BME280;11073;48.586;12.066;2023-04-01T02:11:27;95107.13;;;8.80;65.73
21821;BME280;11073;48.586;12.066;2023-04-01T02:14:22;95117.06;;;8.74;65.58
21821;BME280;11073;48.586;12.066;2023-04-01T02:17:15;95114.63;;;8.73;65.86
21821;BME280;11073;48.586;12.066;2023-04-01T02:20:08;95114.09;;;8.76;65.96
21821;BME280;11073;48.586;12.066;2023-04-01T02:23:00;95114.63;;;8.73;65.81
21821;BME280;11073;48.586;12.066;2023-04-01T02:30:18;95109.75;;;8.70;65.77
21821;BME280;11073;48.586;12.066;2023-04-01T02:33:08;95122.66;;;8.68;65.96
21821;BME280;11073;48.586;12.066;2023-04-01T02:35:57;95125.13;;;8.69;65.89
21821;BME280;11073;48.586;12.066;2023-04-01T02:38:47;95112.91;;;8.62;65.68
21821;BME280;11073;48.586;12.066;2023-04-01T02:41:39;95124.00;;;8.65;65.83
21821;BME280;11073;48.586;12.066;2023-04-01T02:44:28;95117.25;;;8.63;65.75
21821;BME280;11073;48.586;12.066;2023-04-01T02:47:19;95139.59;;;8.58;65.84
21821;BME280;11073;48.586;12.066;2023-04-01T02:50:09;95119.59;;;8.54;65.75
21821;BME280;11073;48.586;12.066;2023-04-01T02:52:58;95101.66;;;8.38;65.72
21821;BME280;11073;48.586;12.066;2023-04-01T02:55:47;95129.00;;;8.51;65.85
21821;BME280;11073;48.586;12.066;2023-04-01T02:58:38;95127.94;;;8.52;65.88
21821;BME280;11073;48.586;12.066;2023-04-01T03:01:27;95134.94;;;8.48;66.01
21821;BME280;11073;48.586;12.066;2023-04-01T03:04:17;95146.53;;;8.49;65.88
21821;BME280;11073;48.586;12.066;2023-04-01T03:07:06;95137.06;;;8.46;66.03
21821;BME280;11073;48.586;12.066;2023-04-01T03:09:55;95145.16;;;8.46;66.27
21821;BME280;11073;48.586;12.066;2023-04-01T03:12:44;95149.50;;;8.47;66.10
21821;BME280;11073;48.586;12.066;2023-04-01T03:15:34;95152.69;;;8.44;65.78
21821;BME280;11073;48.586;12.066;2023-04-01T03:18:23;95151.94;;;8.49;65.98
21821;BME280;11073;48.586;12.066;2023-04-01T03:21:17;95152.53;;;8.56;65.93
21821;BME280;11073;48.586;12.066;2023-04-01T03:24:06;95164.16;;;8.62;66.12
21821;BME280;11073;48.586;12.066;2023-04-01T03:26:56;95139.28;;;8.54;65.77
21821;BME280;11073;48.586;12.066;2023-04-01T03:29:45;95155.78;;;8.58;65.86
21821;BME280;11073;48.586;12.066;2023-04-01T03:32:34;95151.72;;;8.55;66.14
21821;BME280;11073;48.586;12.066;2023-04-01T03:35:23;95144.66;;;8.49;66.12
21821;BME280;11073;48.586;12.066;2023-04-01T03:38:13;95160.31;;;8.52;66.09
21821;BME280;11073;48.586;12.066;2023-04-01T03:41:03;95161.13;;;8.53;65.89
21821;BME280;11073;48.586;12.066;2023-04-01T03:43:53;95165.69;;;8.52;65.85
21821;BME280;11073;48.586;12.066;2023-04-01T03:46:42;95165.97;;;8.51;65.89
21821;BME280;11073;48.586;12.066;2023-04-01T03:49:32;95167.03;;;8.50;65.91
21821;BME280;11073;48.586;12.066;2023-04-01T03:52:22;95163.47;;;8.44;66.09
21821;BME280;11073;48.586;12.066;2023-04-01T03:55:12;95179.44;;;8.51;66.00
21821;BME280;11073;48.586;12.066;2023-04-01T03:58:01;95176.22;;;8.54;66.14
21821;BME280;11073;48.586;12.066;2023-04-01T04:00:51;95175.13;;;8.50;66.04
21821;BME280;11073;48.586;12.066;2023-04-01T04:03:40;95182.41;;;8.49;66.20
21821;BME280;11073;48.586;12.066;2023-04-01T04:06:30;95189.44;;;8.50;65.88
21821;BME280;11073;48.586;12.066;2023-04-01T04:09:19;95187.00;;;8.49;66.28
21821;BME280;11073;48.586;12.066;2023-04-01T04:12:10;95199.66;;;8.48;66.19
21821;BME280;11073;48.586;12.066;2023-04-01T04:14:59;95199.13;;;8.51;66.02
21821;BME280;11073;48.586;12.066;2023-04-01T04:17:48;95201.56;;;8.53;66.21
21821;BME280;11073;48.586;12.066;2023-04-01T04:20:43;95191.88;;;8.52;66.13
21821;BME280;11073;48.586;12.066;2023-04-01T04:23:33;95203.44;;;8.47;65.95
21821;BME280;11073;48.586;12.066;2023-04-01T04:26:23;95208.25;;;8.45;66.23
21821;BME280;11073;48.586;12.066;2023-04-01T04:29:20;95203.88;;;8.39;66.21
21821;BME280;11073;48.586;12.066;2023-04-01T04:32:11;95202.50;;;8.37;66.29
21821;BME280;11073;48.586;12.066;2023-04-01T04:34:59;95204.13;;;8.38;65.97
21821;BME280;11073;48.586;12.066;2023-04-01T04:37:49;95202.41;;;8.32;66.15
21821;BME280;11073;48.586;12.066;2023-04-01T04:40:38;95204.03;;;8.33;66.22
21821;BME280;11073;48.586;12.066;2023-04-01T04:43:29;95205.63;;;8.28;66.19
21821;BME280;11073;48.586;12.066;2023-04-01T04:46:21;95207.78;;;8.26;66.25
21821;BME280;11073;48.586;12.066;2023-04-01T04:49:17;95199.09;;;8.24;66.22
21821;BME280;11073;48.586;12.066;2023-04-01T04:52:06;95204.47;;;8.19;66.15
21821;BME280;11073;48.586;12.066;2023-04-01T04:54:55;95207.66;;;8.16;66.13
21821;BME280;11073;48.586;12.066;2023-04-01T04:57:44;95211.59;;;8.09;66.22
21821;BME280;11073;48.586;12.066;2023-04-01T05:00:32;95215.38;;;8.08;66.11
21821;BME280;11073;48.586;12.066;2023-04-01T05:03:26;95215.63;;;8.06;66.08
21821;BME280;11073;48.586;12.066;2023-04-01T05:06:16;95219.13;;;8.07;66.19
21821;BME280;11073;48.586;12.066;2023-04-01T05:09:08;95217.78;;;8.04;66.52
21821;BME280;11073;48.586;12.066;2023-04-01T05:11:56;95226.91;;;8.03;66.44
21821;BME280;11073;48.586;12.066;2023-04-01T05:14:47;95220.69;;;8.02;66.50
21821;BME280;11073;48.586;12.066;2023-04-01T05:17:36;95218.81;;;8.03;66.46
21821;BME280;11073;48.586;12.066;2023-04-01T05:20:26;95222.38;;;8.09;66.58
21821;BME280;11073;48.586;12.066;2023-04-01T05:23:15;95224.53;;;8.07;66.30
21821;BME280;11073;48.586;12.066;2023-04-01T05:26:05;95223.16;;;8.04;66.47
21821;BME280;11073;48.586;12.066;2023-04-01T05:28:54;95222.91;;;8.06;66.50
21821;BME280;11073;48.586;12.066;2023-04-01T05:31:43;95213.69;;;8.01;66.60
21821;BME280;11073;48.586;12.066;2023-04-01T05:34:32;95228.47;;;7.99;66.37
21821;BME280;11073;48.586;12.066;2023-04-01T05:37:23;95235.56;;;8.05;66.57
21821;BME280;11073;48.586;12.066;2023-04-01T05:40:11;95219.88;;;8.02;66.54
21821;BME280;11073;48.586;12.066;2023-04-01T05:43:00;95221.56;;;8.08;66.62
21821;BME280;11073;48.586;12.066;2023-04-01T05:45:49;95229.22;;;8.16;66.65
21821;BME280;11073;48.586;12.066;2023-04-01T05:49:07;95228.47;;;8.21;66.60
21821;BME280;11073;48.586;12.066;2023-04-01T05:51:57;95227.13;;;8.23;66.63
21821;BME280;11073;48.586;12.066;2023-04-01T05:54:48;95239.59;;;8.29;66.46
21821;BME280;11073;48.586;12.066;2023-04-01T05:57:37;95237.72;;;8.30;66.66
21821;BME280;11073;48.586;12.066;2023-04-01T06:00:26;95226.19;;;8.35;66.70
21821;BME280;11073;48.586;12.066;2023-04-01T06:03:17;95244.31;;;8.39;66.45
21821;BME280;11073;48.586;12.066;2023-04-01T06:14:54;95241.19;;;8.47;66.69
21821;BME280;11073;48.586;12.066;2023-04-01T06:17:54;95243.16;;;8.57;66.41
21821;BME280;11073;48.586;12.066;2023-04-01T06:20:51;95240.22;;;8.59;66.62
21821;BME280;11073;48.586;12.066;2023-04-01T06:23:56;95237.31;;;8.65;66.61
21821;BME280;11073;48.586;12.066;2023-04-01T06:26:54;95239.25;;;8.70;66.42
21821;BME280;11073;48.586;12.066;2023-04-01T06:29:57;95236.84;;;8.73;66.56
21821;BME280;11073;48.586;12.066;2023-04-01T06:33:15;95247.22;;;8.87;66.65
21821;BME280;11073;48.586;12.066;2023-04-01T06:36:31;95244.53;;;8.87;66.34
21821;BME280;11073;48.586;12.066;2023-04-01T06:39:40;95242.69;;;8.92;66.22
21821;BME280;11073;48.586;12.066;2023-04-01T06:42:53;95253.28;;;8.99;66.02
21821;BME280;11073;48.586;12.066;2023-04-01T06:46:12;95252.22;;;9.05;66.06
21821;BME280;11073;48.586;12.066;2023-04-01T06:49:40;95250.38;;;9.10;65.77
21821;BME280;11073;48.586;12.066;2023-04-01T06:57:28;95160.97;;;8.65;65.57
21821;BME280;11073;48.586;12.066;2023-04-01T07:00:27;95245.91;;;9.21;65.41
21821;BME280;11073;48.586;12.066;2023-04-01T07:03:21;95246.78;;;9.32;65.30
21821;BME280;11073;48.586;12.066;2023-04-01T07:06:14;95251.94;;;9.38;65.35
21821;BME280;11073;48.586;12.066;2023-04-01T07:09:13;95259.56;;;9.42;64.90
21821;BME280;11073;48.586;12.066;2023-04-01T07:12:38;95265.00;;;9.52;64.67
21821;BME280;11073;48.586;12.066;2023-04-01T07:15:36;95260.44;;;9.52;64.53
21821;BME280;11073;48.586;12.066;2023-04-01T07:18:32;95264.19;;;9.51;64.65
21821;BME280;11073;48.586;12.066;2023-04-01T07:21:28;95268.56;;;9.57;64.33
21821;BME280;11073;48.586;12.066;2023-04-01T07:24:24;95260.16;;;9.54;64.30
21821;BME280;11073;48.586;12.066;2023-04-01T07:27:23;95260.44;;;9.52;63.96
21821;BME280;11073;48.586;12.066;2023-04-01T07:30:17;95263.41;;;9.56;63.96
21821;BME280;11073;48.586;12.066;2023-04-01T07:33:11;95196.47;;;9.21;64.09
21821;BME280;11073;48.586;12.066;2023-04-01T07:36:10;95291.84;;;9.63;63.82
21821;BME280;11073;48.586;12.066;2023-04-01T07:39:09;95279.13;;;9.59;64.05
21821;BME280;11073;48.586;12.066;2023-04-01T07:42:24;95273.94;;;9.52;64.32
21821;BME280;11073;48.586;12.066;2023-04-01T07:45:22;95270.41;;;9.52;64.62
21821;BME280;11073;48.586;12.066;2023-04-01T07:48:22;95269.81;;;9.45;65.08
21821;BME280;11073;48.586;12.066;2023-04-01T07:51:18;95252.31;;;9.52;65.39
21821;BME280;11073;48.586;12.066;2023-04-01T07:54:13;95251.06;;;9.65;65.47
21821;BME280;11073;48.586;12.066;2023-04-01T07:57:12;95249.47;;;9.74;65.95
21821;BME280;11073;48.586;12.066;2023-04-01T08:00:16;95255.75;;;9.85;65.85
21821;BME280;11073;48.586;12.066;2023-04-01T08:03:35;95237.41;;;9.92;65.60
21821;BME280;11073;48.586;12.066;2023-04-01T08:06:32;95250.50;;;10.15;65.31
21821;BME280;11073;48.586;12.066;2023-04-01T08:09:33;95251.09;;;10.28;65.27
21821;BME280;11073;48.586;12.066;2023-04-01T08:13:05;95208.56;;;10.13;64.31
21821;BME280;11073;48.586;12.066;2023-04-01T08:16:20;95261.19;;;10.53;64.08
21821;BME280;11073;48.586;12.066;2023-04-01T08:19:21;95251.44;;;10.46;63.28
21821;BME280;11073;48.586;12.066;2023-04-01T08:22:22;95249.88;;;10.66;62.97
21821;BME280;11073;48.586;12.066;2023-04-01T08:25:18;95256.94;;;10.87;62.19
21821;BME280;11073;48.586;12.066;2023-04-01T08:28:17;95249.38;;;10.94;61.67
21821;BME280;11073;48.586;12.066;2023-04-01T08:31:11;95230.94;;;10.91;60.90
21821;BME280;11073;48.586;12.066;2023-04-01T08:34:08;95260.22;;;10.94;60.80
21821;BME280;11073;48.586;12.066;2023-04-01T08:37:05;95251.53;;;10.87;59.99
21821;BME280;11073;48.586;12.066;2023-04-01T08:39:58;95240.44;;;11.04;59.70
21821;BME280;11073;48.586;12.066;2023-04-01T08:42:59;95240.69;;;11.28;59.58
21821;BME280;11073;48.586;12.066;2023-04-01T08:46:13;95243.41;;;11.33;58.87
21821;BME280;11073;48.586;12.066;2023-04-01T08:49:19;95248.25;;;11.51;58.52
21821;BME280;11073;48.586;12.066;2023-04-01T08:52:25;95229.53;;;11.70;58.48
21821;BME280;11073;48.586;12.066;2023-04-01T08:55:44;95240.91;;;11.72;57.73
21821;BME280;11073;48.586;12.066;2023-04-01T08:59:08;95225.81;;;11.46;56.96
21821;BME280;11073;48.586;12.066;2023-04-01T09:02:23;95244.78;;;11.30;56.72
21821;BME280;11073;48.586;12.066;2023-04-01T09:05:39;95233.13;;;11.40;56.98
21821;BME280;11073;48.586;12.066;2023-04-01T09:08:45;95246.13;;;11.33;56.78
21821;BME280;11073;48.586;12.066;2023-04-01T09:12:01;95244.78;;;11.46;56.45
21821;BME280;11073;48.586;12.066;2023-04-01T09:15:16;95246.38;;;11.57;56.19
21821;BME280;11073;48.586;12.066;2023-04-01T09:18:18;95239.34;;;11.46;56.08
21821;BME280;11073;48.586;12.066;2023-04-01T09:21:31;95234.19;;;11.44;55.78
21821;BME280;11073;48.586;12.066;2023-04-01T09:25:00;95239.88;;;11.53;56.01
21821;BME280;11073;48.586;12.066;2023-04-01T09:27:56;95226.84;;;11.75;55.79
21821;BME280;11073;48.586;12.066;2023-04-01T09:34:21;95227.56;;;12.01;55.17
21821;BME280;11073;48.586;12.066;2023-04-01T09:37:21;95239.56;;;11.95;54.98
21821;BME280;11073;48.586;12.066;2023-04-01T09:40:31;95234.38;;;12.04;54.43
21821;BME280;11073;48.586;12.066;2023-04-01T09:43:43;95246.84;;;12.00;54.44
21821;BME280;11073;48.586;12.066;2023-04-01T09:46:52;95224.63;;;11.98;54.23
21821;BME280;11073;48.586;12.066;2023-04-01T09:49:55;95228.38;;;12.02;54.41
21821;BME280;11073;48.586;12.066;2023-04-01T09:52:57;95224.91;;;11.96;54.11
21821;BME280;11073;48.586;12.066;2023-04-01T09:59:40;95236.31;;;11.83;54.18
21821;BME280;11073;48.586;12.066;2023-04-01T10:03:07;95227.34;;;11.77;54.03
21821;BME280;11073;48.586;12.066;2023-04-01T10:17:18;95210.03;;;11.58;54.68
21821;BME280;11073;48.586;12.066;2023-04-01T10:20:28;95207.03;;;11.65;54.51
21821;BME280;11073;48.586;12.066;2023-04-01T10:23:48;95225.22;;;11.69;54.41
21821;BME280;11073;48.586;12.066;2023-04-01T10:27:00;95207.09;;;11.54;54.26
21821;BME280;11073;48.586;12.066;2023-04-01T10:30:34;95207.31;;;11.63;54.65
21821;BME280;11073;48.586;12.066;2023-04-01T10:37:18;95203.75;;;11.78;54.51
21821;BME280;11073;48.586;12.066;2023-04-01T10:47:19;95187.53;;;11.63;54.58
21821;BME280;11073;48.586;12.066;2023-04-01T10:53:47;95209.47;;;11.76;54.49
21821;BME280;11073;48.586;12.066;2023-04-01T10:56:46;95202.16;;;11.72;55.02
21821;BME280;11073;48.586;12.066;2023-04-01T11:00:08;95223.59;;;11.73;55.32
21821;BME280;11073;48.586;12.066;2023-04-01T11:03:46;95193.50;;;11.70;55.85
21821;BME280;11073;48.586;12.066;2023-04-01T11:07:23;95190.50;;;11.71;56.18
21821;BME280;11073;48.586;12.066;2023-04-01T11:10:43;95210.03;;;11.73;56.40
21821;BME280;11073;48.586;12.066;2023-04-01T11:20:59;95190.97;;;12.04;56.57
21821;BME280;11073;48.586;12.066;2023-04-01T11:24:18;95195.31;;;12.05;56.12
21821;BME280;11073;48.586;12.066;2023-04-01T11:27:39;95188.59;;;11.77;55.93
21821;BME280;11073;48.586;12.066;2023-04-01T11:30:41;95188.31;;;11.78;56.36
21821;BME280;11073;48.586;12.066;2023-04-01T11:33:39;95205.94;;;11.71;56.42
21821;BME280;11073;48.586;12.066;2023-04-01T11:36:39;95207.09;;;11.59;56.71
21821;BME280;11073;48.586;12.066;2023-04-01T11:39:46;95204.34;;;11.65;57.26
21821;BME280;11073;48.586;12.066;2023-04-01T11:43:01;95208.44;;;11.52;57.61
21821;BME280;11073;48.586;12.066;2023-04-01T11:46:18;95213.59;;;11.48;58.34
21821;BME280;11073;48.586;12.066;2023-04-01T11:49:25;95231.19;;;11.66;58.86
21821;BME280;11073;48.586;12.066;2023-04-01T11:53:09;95226.59;;;11.67;58.63
21821;BME280;11073;48.586;12.066;2023-04-01T11:56:13;95225.81;;;11.46;59.24
21821;BME280;11073;48.586;12.066;2023-04-01T11:59:42;95225.81;;;11.30;59.53
21821;BME280;11073;48.586;12.066;2023-04-01T12:02:44;95225.00;;;11.20;59.91
21821;BME280;11073;48.586;12.066;2023-04-01T12:05:43;95239.09;;;11.27;60.18
21821;BME280;11073;48.586;12.066;2023-04-01T12:08:43;95245.06;;;11.19;60.70
21821;BME280;11073;48.586;12.066;2023-04-01T12:11:42;95252.59;;;10.76;61.02
21821;BME280;11073;48.586;12.066;2023-04-01T12:14:38;95269.06;;;10.59;61.77
21821;BME280;11073;48.586;12.066;2023-04-01T12:17:37;95264.75;;;10.58;62.85
21821;BME280;11073;48.586;12.066;2023-04-01T12:20:37;95276.06;;;10.50;62.78
21821;BME280;11073;48.586;12.066;2023-04-01T12:23:50;95254.38;;;10.35;63.17
21821;BME280;11073;48.586;12.066;2023-04-01T12:26:56;95245.34;;;10.19;63.84
21821;BME280;11073;48.586;12.066;2023-04-01T12:33:37;95276.81;;;10.30;64.79
21821;BME280;11073;48.586;12.066;2023-04-01T12:36:40;95266.44;;;10.17;65.27
21821;BME280;11073;48.586;12.066;2023-04-01T12:39:48;95264.25;;;10.09;65.39
21821;BME280;11073;48.586;12.066;2023-04-01T12:42:51;95268.56;;;10.00;65.62
21821;BME280;11073;48.586;12.066;2023-04-01T12:45:50;95273.63;;;9.91;66.11
21821;BME280;11073;48.586;12.066;2023-04-01T12:49:02;95266.84;;;9.88;66.21
21821;BME280;11073;48.586;12.066;2023-04-01T12:52:04;95265.16;;;9.77;66.46
21821;BME280;11073;48.586;12.066;2023-04-01T12:58:50;95256.72;;;9.63;67.37
21821;BME280;11073;48.586;12.066;2023-04-01T13:02:00;95272.13;;;9.68;67.90
21821;BME280;11073;48.586;12.066;2023-04-01T13:05:13;95271.50;;;9.56;67.79
21821;BME280;11073;48.586;12.066;2023-04-01T13:08:24;95266.34;;;9.49;68.11
21821;BME280;11073;48.586;12.066;2023-04-01T13:11:23;95202.81;;;9.04;68.18
21821;BME280;11073;48.586;12.066;2023-04-01T13:14:40;95269.50;;;9.41;68.81
21821;BME280;11073;48.586;12.066;2023-04-01T13:17:36;95254.38;;;9.35;68.97
21821;BME280;11073;48.586;12.066;2023-04-01T13:20:43;95256.75;;;9.31;68.99
21821;BME280;11073;48.586;12.066;2023-04-01T13:23:43;95254.91;;;9.37;69.32
21821;BME280;11073;48.586;12.066;2023-04-01T13:26:45;95264.13;;;9.41;69.67
21821;BME280;11073;48.586;12.066;2023-04-01T13:29:43;95267.09;;;9.39;69.93
21821;BME280;11073;48.586;12.066;2023-04-01T13:32:37;95263.56;;;9.39;70.00
21821;BME280;11073;48.586;12.066;2023-04-01T13:35:36;95254.66;;;9.38;70.39
21821;BME280;11073;48.586;12.066;2023-04-01T13:38:48;95258.69;;;9.36;70.40
21821;BME280;11073;48.586;12.066;2023-04-01T13:42:02;95261.41;;;9.41;70.75
21821;BME280;11073;48.586;12.066;2023-04-01T13:45:00;95258.50;;;9.48;70.78
21821;BME280;11073;48.586;12.066;2023-04-01T13:51:20;95258.53;;;9.53;70.83
21821;BME280;11073;48.586;12.066;2023-04-01T13:54:34;95243.63;;;9.45;70.91
21821;BME280;11073;48.586;12.066;2023-04-01T13:57:43;95231.47;;;9.43;70.81
21821;BME280;11073;48.586;12.066;2023-04-01T14:00:49;95266.19;;;9.66;71.03
21821;BME280;11073;48.586;12.066;2023-04-01T14:07:00;95261.88;;;9.65;71.21
21821;BME280;11073;48.586;12.066;2023-04-01T14:10:03;95260.28;;;9.74;71.61
21821;BME280;11073;48.586;12.066;2023-04-01T14:13:00;95271.94;;;9.80;71.45
21821;BME280;11073;48.586;12.066;2023-04-01T14:16:03;95260.88;;;9.81;71.66
21821;BME280;11073;48.586;12.066;2023-04-01T14:19:03;95264.41;;;9.87;71.27
21821;BME280;11073;48.586;12.066;2023-04-01T14:22:05;95267.97;;;9.98;71.33
21821;BME280;11073;48.586;12.066;2023-04-01T14:25:20;95253.41;;;10.04;71.16
21821;BME280;11073;48.586;12.066;2023-04-01T14:28:20;95262.09;;;10.11;71.49
21821;BME280;11073;48.586;12.066;2023-04-01T14:31:48;95261.31;;;10.15;71.11
21821;BME280;11073;48.586;12.066;2023-04-01T14:34:54;95265.91;;;10.15;71.35
21821;BME280;11073;48.586;12.066;2023-04-01T14:41:12;95266.41;;;10.12;70.94
21821;BME280;11073;48.586;12.066;2023-04-01T14:44:22;95266.72;;;10.15;70.65
21821;BME280;11073;48.586;12.066;2023-04-01T14:47:32;95264.84;;;10.16;70.54
21821;BME280;11073;48.586;12.066;2023-04-01T14:50:28;95263.19;;;10.10;70.44
21821;BME280;11073;48.586;12.066;2023-04-01T14:53:26;95264.03;;;10.15;70.65
21821;BME280;11073;48.586;12.066;2023-04-01T14:56:35;95264.84;;;10.21;70.19
21821;BME280;11073;48.586;12.066;2023-04-01T14:59:29;95271.94;;;10.32;70.46
21821;BME280;11073;48.586;12.066;2023-04-01T15:02:37;95268.22;;;10.43;70.14
21821;BME280;11073;48.586;12.066;2023-04-01T15:05:39;95272.53;;;10.49;70.33
21821;BME280;11073;48.586;12.066;2023-04-01T15:08:43;95272.28;;;10.46;70.00
21821;BME280;11073;48.586;12.066;2023-04-01T15:11:41;95281.19;;;10.41;70.08
21821;BME280;11073;48.586;12.066;2023-04-01T15:14:53;95266.53;;;10.32;69.67
21821;BME280;11073;48.586;12.066;2023-04-01T15:17:56;95268.72;;;10.30;69.90
21821;BME280;11073;48.586;12.066;2023-04-01T15:21:21;95276.59;;;10.37;70.18
21821;BME280;11073;48.586;12.066;2023-04-01T15:24:19;95276.81;;;10.35;69.90
21821;BME280;11073;48.586;12.066;2023-04-01T15:27:22;95269.50;;;10.31;69.76
21821;BME280;11073;48.586;12.066;2023-04-01T15:30:36;95271.41;;;10.35;69.66
21821;BME280;11073;48.586;12.066;2023-04-01T15:33:45;95278.22;;;10.43;69.31
21821;BME280;11073;48.586;12.066;2023-04-01T15:36:42;95283.94;;;10.52;69.13
21821;BME280;11073;48.586;12.066;2023-04-01T15:39:44;95280.97;;;10.58;69.29
21821;BME280;11073;48.586;12.066;2023-04-01T15:42:51;95279.03;;;10.48;68.82
21821;BME280;11073;48.586;12.066;2023-04-01T15:45:51;95292.03;;;10.57;68.88
21821;BME280;11073;48.586;12.066;2023-04-01T15:48:51;95292.06;;;10.52;68.49
21821;BME280;11073;48.586;12.066;2023-04-01T15:51:56;95290.16;;;10.52;68.63
21821;BME280;11073;48.586;12.066;2023-04-01T15:55:03;95295.00;;;10.50;68.79
21821;BME280;11073;48.586;12.066;2023-04-01T15:58:16;95295.84;;;10.51;68.35
21821;BME280;11073;48.586;12.066;2023-04-01T16:01:23;95303.94;;;10.45;68.28
21821;BME280;11073;48.586;12.066;2023-04-01T16:04:35;95297.66;;;10.35;68.16
21821;BME280;11073;48.586;12.066;2023-04-01T16:07:43;95293.88;;;10.36;68.45
21821;BME280;11073;48.586;12.066;2023-04-01T16:10:53;95299.28;;;10.31;68.44
21821;BME280;11073;48.586;12.066;2023-04-01T16:13:57;95307.34;;;10.26;68.54
21821;BME280;11073;48.586;12.066;2023-04-01T16:17:00;95303.50;;;10.16;68.48
21821;BME280;11073;48.586;12.066;2023-04-01T16:19:55;95306.97;;;10.12;68.42
21821;BME280;11073;48.586;12.066;2023-04-01T16:22:52;95303.69;;;10.05;68.47
21821;BME280;11073;48.586;12.066;2023-04-01T16:25:45;95310.22;;;10.09;68.43
21821;BME280;11073;48.586;12.066;2023-04-01T16:28:44;95311.81;;;10.05;68.58
21821;BME280;11073;48.586;12.066;2023-04-01T16:31:37;95308.00;;;9.95;68.69
21821;BME280;11073;48.586;12.066;2023-04-01T16:34:38;95308.25;;;9.94;68.55
21821;BME280;11073;48.586;12.066;2023-04-01T16:37:33;95306.88;;;9.91;68.50
21821;BME280;11073;48.586;12.066;2023-04-01T16:40:37;95312.94;;;10.14;69.04
21821;BME280;11073;48.586;12.066;2023-04-01T16:43:38;95324.28;;;10.11;68.78
21821;BME280;11073;48.586;12.066;2023-04-01T16:46:38;95315.91;;;10.07;68.38
21821;BME280;11073;48.586;12.066;2023-04-01T16:49:32;95318.84;;;10.06;68.25
21821;BME280;11073;48.586;12.066;2023-04-01T16:52:48;95320.78;;;10.10;68.13
21821;BME280;11073;48.586;12.066;2023-04-01T16:55:48;95322.94;;;10.08;68.02
21821;BME280;11073;48.586;12.066;2023-04-01T16:58:42;95304.19;;;9.97;67.92
21821;BME280;11073;48.586;12.066;2023-04-01T17:01:40;95323.19;;;10.07;67.95